This is the latest recevied weather packets stored in our database for station/object KE0TNI-13. If no packets are shown the sender has not sent any weather packets the latest 1 day(s).
| Time | Temp. | Humidity | Pressure | Rain* | Wind** | Luminosity | Snow |
|---|---|---|---|---|---|---|---|
| 1778114000 | 6.11° C | 63% | 1018.8 hPa | 2.29 mm | - | 184 W/m² | - |
| 1778113695 | 5° C | 67% | 1018.4 hPa | 1.78 mm | - | 204 W/m² | - |
| 1778113089 | 4.44° C | 70% | 1018.7 hPa | 1.78 mm | - | 246 W/m² | - |
| 1778112786 | 5° C | 66% | 1018.7 hPa | 1.27 mm | - | 270 W/m² | - |
| 1778111268 | 3.89° C | 69% | 1018.4 hPa | 0 mm | - | 383 W/m² | - |
| 1778110965 | 4.44° C | 69% | 1018.3 hPa | 0 mm | - | 406 W/m² | - |
| 1778109750 | 1.67° C | 77% | 1018.2 hPa | 0 mm | - | 200 W/m² | - |
| 1778109448 | 1.67° C | 74% | 1018.3 hPa | 0 mm | - | 179 W/m² | - |
| 1778107933 | 0° C | 81% | 1018 hPa | 0 mm | - | 315 W/m² | - |
| 1778104291 | 0.56° C | 80% | 1018.2 hPa | 0 mm | - | 34 W/m² | - |
| 1778103686 | -1.11° C | 82% | 1018.4 hPa | 0 mm | - | 35 W/m² | - |
| 1778103384 | 0° C | 79% | 1018.4 hPa | 0.51 mm | - | 36 W/m² | - |
| 1778103081 | 0.56° C | 79% | 1018.4 hPa | 0.51 mm | - | 85 W/m² | - |
| 1778101866 | 0° C | 81% | 1018.3 hPa | 0 mm | - | 46 W/m² | - |
| 1778101259 | -1.67° C | 86% | 1018.7 hPa | 0 mm | - | 55 W/m² | - |
| 1778100046 | -2.22° C | 86% | 1019.2 hPa | 0 mm | - | 22 W/m² | - |
| 1778099138 | -2.22° C | 86% | 1018.5 hPa | 0 mm | - | 33 W/m² | - |
| 1778098834 | -2.22° C | 84% | 1018.8 hPa | 0 mm | - | 25 W/m² | - |
| 1778094286 | -2.78° C | 84% | 1019.1 hPa | 0 mm | - | 34 W/m² | - |
| 1778092771 | -3.33° C | 83% | 1019.1 hPa | 0 mm | - | 23 W/m² | - |
| 1778092466 | -2.22° C | 85% | 1018.9 hPa | 0 mm | - | 25 W/m² | - |
| 1778090042 | -2.78° C | 87% | 1019.1 hPa | 0 mm | - | 36 W/m² | - |
| 1778086712 | -3.89° C | 89% | 1019.1 hPa | 0 mm | - | 17 W/m² | - |
| 1778085194 | -3.89° C | 88% | 1018.3 hPa | 0 mm | - | 18 W/m² | - |
| 1778084588 | -3.33° C | 90% | 1018.4 hPa | 0 mm | - | 28 W/m² | - |
* Rain latest hour (hover to see other rain measurements)
** Current wind speed in m/s (hover to see current wind gust speed)